Time,TemperatureF,DewpointF,PressureIn,WindDirection,WindDirectionDegrees,WindSpeedMPH,WindSpeedGustMPH,Humidity,HourlyPrecipIn,Conditions,Clouds,dailyrainin,SolarRadiationWatts/m^2,SoftwareType,DateUTC
2013-10-26 00:12:00,53.4,51.0,30.11,SE,144,0.0,2.0,92,0.00,,,0.00,0,weatherlink.com 1.10,2013-10-26 07:12:00,
2013-10-26 00:27:00,53.3,51.0,30.11,SE,144,2.0,3.0,92,0.00,,,0.00,0,weatherlink.com 1.10,2013-10-26 07:27:00,
2013-10-26 00:42:00,53.2,51.0,30.12,SE,144,3.0,4.0,92,0.00,,,0.00,0,weatherlink.com 1.10,2013-10-26 07:42:00,
2013-10-26 00:57:00,52.9,51.0,30.12,SE,141,3.0,4.0,92,0.00,,,0.00,0,weatherlink.com 1.10,2013-10-26 07:57:00,
2013-10-26 01:12:00,52.8,51.0,30.12,SE,142,2.0,5.0,92,0.00,,,0.00,0,weatherlink.com 1.10,2013-10-26 08:12:00,
2013-10-26 01:27:00,52.7,51.0,30.12,SE,142,1.0,4.0,93,0.00,,,0.00,0,weatherlink.com 1.10,2013-10-26 08:27:00,
2013-10-26 01:42:00,52.7,51.0,30.12,SE,142,2.0,4.0,93,0.00,,,0.00,0,weatherlink.com 1.10,2013-10-26 08:42:00,
2013-10-26 01:57:00,52.7,51.0,30.13,SE,142,2.0,5.0,93,0.00,,,0.00,0,weatherlink.com 1.10,2013-10-26 08:57:00,
2013-10-26 02:12:00,52.6,51.0,30.13,SE,142,2.0,4.0,93,0.00,,,0.00,0,weatherlink.com 1.10,2013-10-26 09:12:00,
2013-10-26 02:27:00,52.4,51.0,30.13,SE,142,1.0,4.0,93,0.00,,,0.00,0,weatherlink.com 1.10,2013-10-26 09:27:00,
2013-10-26 02:42:00,52.4,51.0,30.13,SE,143,2.0,4.0,93,0.00,,,0.00,0,weatherlink.com 1.10,2013-10-26 09:42:00,
2013-10-26 02:57:00,52.3,50.0,30.13,SE,143,3.0,5.0,93,0.00,,,0.00,0,weatherlink.com 1.10,2013-10-26 09:57:00,
2013-10-26 03:12:00,52.3,51.0,30.13,SE,145,3.0,5.0,94,0.00,,,0.00,0,weatherlink.com 1.10,2013-10-26 10:12:00,
2013-10-26 03:27:00,52.2,51.0,30.12,SE,139,2.0,5.0,94,0.00,,,0.00,0,weatherlink.com 1.10,2013-10-26 10:27:00,
2013-10-26 03:42:00,52.1,51.0,30.12,SE,139,1.0,3.0,94,0.00,,,0.00,0,weatherlink.com 1.10,2013-10-26 10:42:00,
2013-10-26 03:57:00,52.0,50.0,30.12,SE,139,2.0,3.0,94,0.00,,,0.00,0,weatherlink.com 1.10,2013-10-26 10:57:00,
2013-10-26 04:12:00,51.9,50.0,30.11,SE,139,2.0,2.0,94,0.00,,,0.00,0,weatherlink.com 1.10,2013-10-26 11:12:00,
2013-10-26 04:27:00,51.8,50.0,30.11,SE,139,1.0,3.0,94,0.00,,,0.00,0,weatherlink.com 1.10,2013-10-26 11:27:00,
2013-10-26 04:42:00,51.8,50.0,30.11,SE,139,2.0,2.0,94,0.00,,,0.00,0,weatherlink.com 1.10,2013-10-26 11:42:00,
2013-10-26 04:57:00,51.7,50.0,30.12,SE,139,1.0,2.0,94,0.00,,,0.00,0,weatherlink.com 1.10,2013-10-26 11:57:00,
2013-10-26 05:12:00,51.7,50.0,30.12,SE,139,0.0,2.0,94,0.00,,,0.00,0,weatherlink.com 1.10,2013-10-26 12:12:00,
2013-10-26 05:27:00,51.6,50.0,30.11,SE,139,1.0,2.0,94,0.00,,,0.00,0,weatherlink.com 1.10,2013-10-26 12:27:00,
2013-10-26 05:42:00,51.6,50.0,30.11,SE,139,0.0,3.0,94,0.00,,,0.00,0,weatherlink.com 1.10,2013-10-26 12:42:00,
2013-10-26 05:57:00,51.5,50.0,30.11,SE,139,0.0,2.0,94,0.00,,,0.00,0,weatherlink.com 1.10,2013-10-26 12:57:00,
2013-10-26 06:12:00,51.4,50.0,30.11,SE,139,0.0,2.0,94,0.00,,,0.00,0,weatherlink.com 1.10,2013-10-26 13:12:00,
2013-10-26 06:27:00,51.2,50.0,30.11,SE,139,0.0,1.0,94,0.00,,,0.00,0,weatherlink.com 1.10,2013-10-26 13:27:00,
2013-10-26 06:42:00,50.6,49.0,30.12,SE,139,0.0,0.0,93,0.01,,,0.01,0,weatherlink.com 1.10,2013-10-26 13:42:00,
2013-10-26 06:57:00,50.3,49.0,30.12,SE,139,0.0,0.0,94,0.01,,,0.01,0,weatherlink.com 1.10,2013-10-26 13:57:00,
2013-10-26 07:12:00,50.4,49.0,30.12,SE,139,0.0,0.0,94,0.01,,,0.01,0,weatherlink.com 1.10,2013-10-26 14:12:00,
2013-10-26 07:27:00,50.2,49.0,30.13,SE,139,0.0,1.0,94,0.01,,,0.01,0,weatherlink.com 1.10,2013-10-26 14:27:00,
2013-10-26 07:42:00,50.1,49.0,30.13,SE,139,0.0,0.0,94,0.00,,,0.01,11,weatherlink.com 1.10,2013-10-26 14:42:00,
2013-10-26 07:57:00,49.9,48.0,30.14,SE,139,0.0,0.0,94,0.00,,,0.01,18,weatherlink.com 1.10,2013-10-26 14:57:00,
2013-10-26 08:12:00,50.2,49.0,30.13,SE,139,0.0,0.0,95,0.00,,,0.01,67,weatherlink.com 1.10,2013-10-26 15:12:00,
2013-10-26 08:27:00,51.4,50.0,30.14,SE,139,0.0,0.0,96,0.00,,,0.01,111,weatherlink.com 1.10,2013-10-26 15:27:00,
2013-10-26 08:42:00,53.3,52.0,30.14,SE,139,0.0,0.0,96,0.00,,,0.01,162,weatherlink.com 1.10,2013-10-26 15:42:00,
2013-10-26 08:58:00,54.8,54.0,30.14,SE,139,0.0,1.0,96,0.00,,,0.01,204,weatherlink.com 1.10,2013-10-26 15:58:00,
2013-10-26 09:13:00,56.9,56.0,30.14,SE,139,0.0,0.0,95,0.00,,,0.01,241,weatherlink.com 1.10,2013-10-26 16:13:00,
2013-10-26 09:28:00,58.0,54.0,30.14,SE,139,0.0,2.0,86,0.00,,,0.01,281,weatherlink.com 1.10,2013-10-26 16:28:00,
2013-10-26 09:43:00,58.4,54.0,30.14,SE,139,0.0,2.0,85,0.00,,,0.01,318,weatherlink.com 1.10,2013-10-26 16:43:00,
2013-10-26 09:58:00,59.9,54.0,30.14,SE,139,0.0,1.0,82,0.00,,,0.01,357,weatherlink.com 1.10,2013-10-26 16:58:00,
2013-10-26 10:13:00,62.6,56.0,30.14,SE,139,0.0,1.0,80,0.00,,,0.01,397,weatherlink.com 1.10,2013-10-26 17:13:00,
2013-10-26 10:28:00,64.9,56.0,30.13,SE,140,0.0,3.0,73,0.00,,,0.01,446,weatherlink.com 1.10,2013-10-26 17:28:00,
2013-10-26 10:43:00,66.5,56.0,30.13,SE,139,0.0,2.0,68,0.00,,,0.01,512,weatherlink.com 1.10,2013-10-26 17:43:00,
2013-10-26 10:58:00,67.3,55.0,30.13,SE,138,0.0,2.0,65,0.00,,,0.01,541,weatherlink.com 1.10,2013-10-26 17:58:00,
2013-10-26 11:13:00,68.9,57.0,30.13,SSE,151,0.0,2.0,66,0.00,,,0.01,570,weatherlink.com 1.10,2013-10-26 18:13:00,
2013-10-26 11:28:00,69.6,57.0,30.13,ESE,117,0.0,2.0,65,0.00,,,0.01,594,weatherlink.com 1.10,2013-10-26 18:28:00,
2013-10-26 11:43:00,70.9,57.0,30.13,ESE,114,0.0,2.0,61,0.00,,,0.01,615,weatherlink.com 1.10,2013-10-26 18:43:00,
2013-10-26 11:58:00,72.2,57.0,30.12,SSE,156,0.0,2.0,59,0.00,,,0.01,640,weatherlink.com 1.10,2013-10-26 18:58:00,
2013-10-26 12:13:00,72.4,57.0,30.11,ENE,75,1.0,3.0,59,0.00,,,0.01,647,weatherlink.com 1.10,2013-10-26 19:13:00,
2013-10-26 12:29:00,72.4,56.0,30.11,SE,143,1.0,4.0,56,0.00,,,0.01,659,weatherlink.com 1.10,2013-10-26 19:29:00,
2013-10-26 12:44:00,71.6,55.0,30.10,South,180,1.0,3.0,57,0.00,,,0.01,666,weatherlink.com 1.10,2013-10-26 19:44:00,
2013-10-26 12:59:00,71.8,56.0,30.10,South,173,2.0,2.0,57,0.00,,,0.01,664,weatherlink.com 1.10,2013-10-26 19:59:00,
2013-10-26 13:14:00,70.5,54.0,30.09,SSE,148,1.0,4.0,57,0.00,,,0.01,661,weatherlink.com 1.10,2013-10-26 20:14:00,
2013-10-26 13:29:00,69.8,54.0,30.08,South,178,1.0,4.0,58,0.00,,,0.01,654,weatherlink.com 1.10,2013-10-26 20:29:00,
2013-10-26 13:44:00,69.5,53.0,30.07,SSE,149,3.0,4.0,57,0.00,,,0.01,643,weatherlink.com 1.10,2013-10-26 20:44:00,
2013-10-26 13:59:00,67.6,54.0,30.07,SE,146,1.0,4.0,61,0.00,,,0.01,629,weatherlink.com 1.10,2013-10-26 20:59:00,
2013-10-26 14:14:00,69.0,54.0,30.06,South,185,1.0,3.0,60,0.00,,,0.01,615,weatherlink.com 1.10,2013-10-26 21:14:00,
2013-10-26 14:29:00,71.5,55.0,30.05,South,179,0.0,2.0,56,0.00,,,0.01,596,weatherlink.com 1.10,2013-10-26 21:29:00,
2013-10-26 14:44:00,73.6,56.0,30.05,SSW,192,0.0,3.0,54,0.00,,,0.01,571,weatherlink.com 1.10,2013-10-26 21:44:00,
2013-10-26 14:59:00,73.2,55.0,30.05,South,186,0.0,4.0,53,0.00,,,0.01,545,weatherlink.com 1.10,2013-10-26 21:59:00,
2013-10-26 15:14:00,69.2,54.0,30.04,SSE,155,2.0,4.0,59,0.00,,,0.01,513,weatherlink.com 1.10,2013-10-26 22:14:00,
2013-10-26 15:29:00,67.5,53.0,30.04,SSE,157,0.0,5.0,61,0.00,,,0.01,476,weatherlink.com 1.10,2013-10-26 22:29:00,
2013-10-26 15:44:00,68.4,54.0,30.03,SSE,147,1.0,4.0,61,0.00,,,0.01,443,weatherlink.com 1.10,2013-10-26 22:44:00,
2013-10-26 15:59:00,69.1,54.0,30.03,SSE,165,2.0,4.0,60,0.00,,,0.01,403,weatherlink.com 1.10,2013-10-26 22:59:00,
2013-10-26 16:14:00,69.0,55.0,30.03,South,188,2.0,4.0,61,0.00,,,0.01,360,weatherlink.com 1.10,2013-10-26 23:14:00,
2013-10-26 16:29:00,68.2,55.0,30.02,SSE,156,1.0,5.0,62,0.00,,,0.01,318,weatherlink.com 1.10,2013-10-26 23:29:00,
2013-10-26 16:44:00,67.4,54.0,30.02,SSE,158,2.0,5.0,63,0.00,,,0.01,272,weatherlink.com 1.10,2013-10-26 23:44:00,
2013-10-26 16:59:00,65.8,54.0,30.02,SE,127,3.0,6.0,66,0.00,,,0.01,216,weatherlink.com 1.10,2013-10-26 23:59:00,
2013-10-26 17:14:00,64.1,54.0,30.02,SSE,156,1.0,6.0,69,0.00,,,0.01,104,weatherlink.com 1.10,2013-10-27 00:14:00,
2013-10-26 17:29:00,63.2,53.0,30.01,SE,142,3.0,6.0,70,0.00,,,0.01,100,weatherlink.com 1.10,2013-10-27 00:29:00,
2013-10-26 17:44:00,61.9,53.0,30.01,SE,136,5.0,8.0,72,0.00,,,0.01,28,weatherlink.com 1.10,2013-10-27 00:44:00,
2013-10-26 17:59:00,60.6,53.0,30.01,SE,136,5.0,6.0,76,0.00,,,0.01,18,weatherlink.com 1.10,2013-10-27 00:59:00,
2013-10-26 18:14:00,59.4,53.0,30.01,SE,140,3.0,5.0,78,0.00,,,0.01,5,weatherlink.com 1.10,2013-10-27 01:14:00,
2013-10-26 18:29:00,58.2,52.0,30.01,SE,132,4.0,7.0,80,0.00,,,0.01,0,weatherlink.com 1.10,2013-10-27 01:29:00,
2013-10-26 18:44:00,56.9,52.0,30.01,SE,132,3.0,6.0,83,0.00,,,0.01,0,weatherlink.com 1.10,2013-10-27 01:44:00,
2013-10-26 18:59:00,55.9,52.0,30.02,SSE,153,5.0,7.0,85,0.00,,,0.01,0,weatherlink.com 1.10,2013-10-27 01:59:00,
2013-10-26 19:14:00,55.2,51.0,30.02,South,169,2.0,8.0,87,0.00,,,0.01,0,weatherlink.com 1.10,2013-10-27 02:14:00,
2013-10-26 19:29:00,54.7,51.0,30.02,SE,134,3.0,6.0,87,0.00,,,0.01,0,weatherlink.com 1.10,2013-10-27 02:29:00,
2013-10-26 19:44:00,54.2,51.0,30.02,SE,135,4.0,4.0,89,0.00,,,0.01,0,weatherlink.com 1.10,2013-10-27 02:44:00,
2013-10-26 19:59:00,53.9,51.0,30.02,SE,137,2.0,5.0,89,0.00,,,0.01,0,weatherlink.com 1.10,2013-10-27 02:59:00,
2013-10-26 20:14:00,53.4,51.0,30.02,SE,145,3.0,6.0,90,0.00,,,0.01,0,weatherlink.com 1.10,2013-10-27 03:14:00,
2013-10-26 20:29:00,53.2,51.0,30.02,SE,140,3.0,6.0,91,0.00,,,0.01,0,weatherlink.com 1.10,2013-10-27 03:29:00,
2013-10-26 20:44:00,53.3,51.0,30.02,SE,138,4.0,5.0,91,0.00,,,0.01,0,weatherlink.com 1.10,2013-10-27 03:44:00,
2013-10-26 20:59:00,53.4,51.0,30.02,SE,134,4.0,6.0,92,0.00,,,0.01,0,weatherlink.com 1.10,2013-10-27 03:59:00,
2013-10-26 21:14:00,53.2,51.0,30.03,SE,141,4.0,7.0,92,0.00,,,0.01,0,weatherlink.com 1.10,2013-10-27 04:14:00,
2013-10-26 21:29:00,52.8,51.0,30.03,SE,128,4.0,7.0,92,0.00,,,0.01,0,weatherlink.com 1.10,2013-10-27 04:29:00,
2013-10-26 21:44:00,52.5,51.0,30.04,SE,141,4.0,9.0,93,0.00,,,0.01,0,weatherlink.com 1.10,2013-10-27 04:44:00,
2013-10-26 21:59:00,52.4,51.0,30.04,SSE,160,2.0,8.0,93,0.00,,,0.01,0,weatherlink.com 1.10,2013-10-27 04:59:00,
2013-10-26 22:14:00,52.3,51.0,30.04,SSE,153,4.0,9.0,94,0.00,,,0.01,0,weatherlink.com 1.10,2013-10-27 05:14:00,
2013-10-26 22:29:00,52.0,50.0,30.04,South,177,5.0,9.0,94,0.00,,,0.01,0,weatherlink.com 1.10,2013-10-27 05:29:00,
2013-10-26 22:44:00,51.7,50.0,30.04,SSE,149,5.0,10.0,94,0.00,,,0.01,0,weatherlink.com 1.10,2013-10-27 05:44:00,
2013-10-26 22:59:00,51.4,50.0,30.04,SE,134,3.0,8.0,94,0.00,,,0.01,0,weatherlink.com 1.10,2013-10-27 05:59:00,
2013-10-26 23:14:00,51.3,50.0,30.04,SE,127,2.0,5.0,94,0.00,,,0.01,0,weatherlink.com 1.10,2013-10-27 06:14:00,
2013-10-26 23:29:00,51.2,50.0,30.04,SE,137,4.0,5.0,94,0.00,,,0.01,0,weatherlink.com 1.10,2013-10-27 06:29:00,
2013-10-26 23:44:00,51.2,50.0,30.03,SE,142,2.0,5.0,94,0.00,,,0.01,0,weatherlink.com 1.10,2013-10-27 06:44:00,
2013-10-26 23:59:00,51.1,50.0,30.03,SE,143,4.0,6.0,94,0.00,,,0.01,0,weatherlink.com 1.10,2013-10-27 06:59:00,